sensor_id;sensor_type;location;lat;lon;timestamp;P1;durP1;ratioP1;P2;durP2;ratioP2
9052;SDS011;4561;47.450;7.516;2023-09-19T00:03:12;1.53;;;0.50;;
9052;SDS011;4561;47.450;7.516;2023-09-19T00:06:32;1.00;;;0.60;;
9052;SDS011;4561;47.450;7.516;2023-09-19T00:09:55;1.17;;;0.70;;
9052;SDS011;4561;47.450;7.516;2023-09-19T00:13:15;0.70;;;0.63;;
9052;SDS011;4561;47.450;7.516;2023-09-19T00:16:39;1.03;;;0.60;;
9052;SDS011;4561;47.450;7.516;2023-09-19T00:20:01;2.00;;;0.70;;
9052;SDS011;4561;47.450;7.516;2023-09-19T00:23:33;0.97;;;0.50;;
9052;SDS011;4561;47.450;7.516;2023-09-19T00:26:56;2.97;;;0.60;;
9052;SDS011;4561;47.450;7.516;2023-09-19T00:30:16;1.10;;;0.70;;
9052;SDS011;4561;47.450;7.516;2023-09-19T00:33:40;1.57;;;0.90;;
9052;SDS011;4561;47.450;7.516;2023-09-19T00:37:01;0.97;;;0.70;;
9052;SDS011;4561;47.450;7.516;2023-09-19T00:40:21;1.43;;;0.70;;
9052;SDS011;4561;47.450;7.516;2023-09-19T00:43:46;2.63;;;0.70;;
9052;SDS011;4561;47.450;7.516;2023-09-19T00:47:07;0.70;;;0.50;;
9052;SDS011;4561;47.450;7.516;2023-09-19T00:50:29;1.33;;;0.70;;
9052;SDS011;4561;47.450;7.516;2023-09-19T00:53:52;1.87;;;0.80;;
9052;SDS011;4561;47.450;7.516;2023-09-19T00:57:13;1.50;;;0.70;;
9052;SDS011;4561;47.450;7.516;2023-09-19T01:00:35;1.00;;;0.60;;
9052;SDS011;4561;47.450;7.516;2023-09-19T01:03:55;1.60;;;0.97;;
9052;SDS011;4561;47.450;7.516;2023-09-19T01:07:16;1.63;;;1.00;;
9052;SDS011;4561;47.450;7.516;2023-09-19T01:10:37;1.07;;;0.97;;
9052;SDS011;4561;47.450;7.516;2023-09-19T01:18:30;2.53;;;0.80;;
9052;SDS011;4561;47.450;7.516;2023-09-19T01:22:00;0.70;;;0.70;;
9052;SDS011;4561;47.450;7.516;2023-09-19T01:29:44;1.00;;;0.70;;
9052;SDS011;4561;47.450;7.516;2023-09-19T01:33:06;0.73;;;0.73;;
9052;SDS011;4561;47.450;7.516;2023-09-19T01:36:32;2.03;;;0.90;;
9052;SDS011;4561;47.450;7.516;2023-09-19T01:40:00;0.97;;;0.83;;
9052;SDS011;4561;47.450;7.516;2023-09-19T01:43:36;1.53;;;1.10;;
9052;SDS011;4561;47.450;7.516;2023-09-19T01:46:59;1.90;;;0.87;;
9052;SDS011;4561;47.450;7.516;2023-09-19T01:50:36;1.40;;;0.77;;
9052;SDS011;4561;47.450;7.516;2023-09-19T01:54:03;1.93;;;0.90;;
9052;SDS011;4561;47.450;7.516;2023-09-19T01:57:40;1.00;;;0.90;;
9052;SDS011;4561;47.450;7.516;2023-09-19T02:01:07;1.30;;;0.97;;
9052;SDS011;4561;47.450;7.516;2023-09-19T02:04:30;1.57;;;0.77;;
9052;SDS011;4561;47.450;7.516;2023-09-19T02:08:00;2.23;;;0.77;;
9052;SDS011;4561;47.450;7.516;2023-09-19T02:11:23;0.63;;;0.63;;
9052;SDS011;4561;47.450;7.516;2023-09-19T02:14:44;0.60;;;0.60;;
9052;SDS011;4561;47.450;7.516;2023-09-19T02:18:04;2.10;;;0.80;;
9052;SDS011;4561;47.450;7.516;2023-09-19T02:21:26;1.37;;;0.90;;
9052;SDS011;4561;47.450;7.516;2023-09-19T02:24:49;1.27;;;1.00;;
9052;SDS011;4561;47.450;7.516;2023-09-19T02:28:10;3.13;;;1.03;;
9052;SDS011;4561;47.450;7.516;2023-09-19T02:31:33;1.40;;;0.80;;
9052;SDS011;4561;47.450;7.516;2023-09-19T02:34:54;1.27;;;0.80;;
9052;SDS011;4561;47.450;7.516;2023-09-19T02:38:16;0.80;;;0.80;;
9052;SDS011;4561;47.450;7.516;2023-09-19T02:41:44;2.07;;;0.80;;
9052;SDS011;4561;47.450;7.516;2023-09-19T02:45:05;1.93;;;0.73;;
9052;SDS011;4561;47.450;7.516;2023-09-19T02:48:25;2.37;;;0.70;;
9052;SDS011;4561;47.450;7.516;2023-09-19T02:51:46;1.37;;;0.80;;
9052;SDS011;4561;47.450;7.516;2023-09-19T02:55:07;3.63;;;0.90;;
9052;SDS011;4561;47.450;7.516;2023-09-19T02:58:29;1.63;;;0.90;;
9052;SDS011;4561;47.450;7.516;2023-09-19T03:01:50;2.17;;;1.00;;
9052;SDS011;4561;47.450;7.516;2023-09-19T03:05:11;1.47;;;0.70;;
9052;SDS011;4561;47.450;7.516;2023-09-19T03:08:31;1.37;;;0.80;;
9052;SDS011;4561;47.450;7.516;2023-09-19T03:11:56;0.70;;;0.70;;
9052;SDS011;4561;47.450;7.516;2023-09-19T03:15:17;0.83;;;0.77;;
9052;SDS011;4561;47.450;7.516;2023-09-19T03:18:38;1.73;;;0.90;;
9052;SDS011;4561;47.450;7.516;2023-09-19T03:22:00;4.57;;;0.73;;
9052;SDS011;4561;47.450;7.516;2023-09-19T03:25:22;3.37;;;1.20;;
9052;SDS011;4561;47.450;7.516;2023-09-19T03:28:45;2.87;;;1.10;;
9052;SDS011;4561;47.450;7.516;2023-09-19T03:32:06;3.10;;;1.00;;
9052;SDS011;4561;47.450;7.516;2023-09-19T03:35:26;2.37;;;1.00;;
9052;SDS011;4561;47.450;7.516;2023-09-19T03:38:49;1.37;;;0.90;;
9052;SDS011;4561;47.450;7.516;2023-09-19T03:42:10;1.93;;;1.00;;
9052;SDS011;4561;47.450;7.516;2023-09-19T03:45:30;2.20;;;1.00;;
9052;SDS011;4561;47.450;7.516;2023-09-19T03:48:50;1.83;;;1.00;;
9052;SDS011;4561;47.450;7.516;2023-09-19T03:52:11;2.83;;;0.90;;
9052;SDS011;4561;47.450;7.516;2023-09-19T03:55:33;2.40;;;1.00;;
9052;SDS011;4561;47.450;7.516;2023-09-19T03:58:55;1.50;;;0.77;;
9052;SDS011;4561;47.450;7.516;2023-09-19T04:02:18;2.40;;;1.20;;
9052;SDS011;4561;47.450;7.516;2023-09-19T04:05:52;2.20;;;1.10;;
9052;SDS011;4561;47.450;7.516;2023-09-19T04:09:15;2.20;;;1.07;;
9052;SDS011;4561;47.450;7.516;2023-09-19T04:12:36;4.40;;;1.10;;
9052;SDS011;4561;47.450;7.516;2023-09-19T04:15:56;2.27;;;1.00;;
9052;SDS011;4561;47.450;7.516;2023-09-19T04:19:16;4.67;;;1.23;;
9052;SDS011;4561;47.450;7.516;2023-09-19T04:22:41;1.77;;;0.80;;
9052;SDS011;4561;47.450;7.516;2023-09-19T04:26:01;3.40;;;1.10;;
9052;SDS011;4561;47.450;7.516;2023-09-19T04:29:24;4.60;;;1.10;;
9052;SDS011;4561;47.450;7.516;2023-09-19T04:32:48;1.93;;;1.00;;
9052;SDS011;4561;47.450;7.516;2023-09-19T04:36:10;1.43;;;1.00;;
9052;SDS011;4561;47.450;7.516;2023-09-19T04:39:33;4.27;;;1.13;;
9052;SDS011;4561;47.450;7.516;2023-09-19T04:42:54;3.30;;;1.20;;
9052;SDS011;4561;47.450;7.516;2023-09-19T04:46:17;2.30;;;1.10;;
9052;SDS011;4561;47.450;7.516;2023-09-19T04:49:40;2.67;;;0.93;;
9052;SDS011;4561;47.450;7.516;2023-09-19T04:53:01;3.97;;;1.10;;
9052;SDS011;4561;47.450;7.516;2023-09-19T04:56:21;2.53;;;1.10;;
9052;SDS011;4561;47.450;7.516;2023-09-19T04:59:42;1.50;;;1.00;;
9052;SDS011;4561;47.450;7.516;2023-09-19T05:03:02;2.93;;;1.40;;
9052;SDS011;4561;47.450;7.516;2023-09-19T05:06:24;2.20;;;0.80;;
9052;SDS011;4561;47.450;7.516;2023-09-19T05:09:46;1.73;;;1.00;;
9052;SDS011;4561;47.450;7.516;2023-09-19T05:13:06;3.13;;;1.27;;
9052;SDS011;4561;47.450;7.516;2023-09-19T05:16:29;2.60;;;1.30;;
9052;SDS011;4561;47.450;7.516;2023-09-19T05:19:55;4.10;;;2.00;;
9052;SDS011;4561;47.450;7.516;2023-09-19T05:23:16;2.30;;;1.20;;
9052;SDS011;4561;47.450;7.516;2023-09-19T05:26:36;2.30;;;1.30;;
9052;SDS011;4561;47.450;7.516;2023-09-19T05:29:57;4.20;;;1.20;;
9052;SDS011;4561;47.450;7.516;2023-09-19T05:33:17;2.77;;;1.10;;
9052;SDS011;4561;47.450;7.516;2023-09-19T05:36:39;3.37;;;1.30;;
9052;SDS011;4561;47.450;7.516;2023-09-19T05:40:01;4.30;;;1.50;;
9052;SDS011;4561;47.450;7.516;2023-09-19T05:43:27;2.77;;;1.10;;
9052;SDS011;4561;47.450;7.516;2023-09-19T05:46:47;1.97;;;1.13;;
9052;SDS011;4561;47.450;7.516;2023-09-19T05:50:08;1.97;;;1.00;;
9052;SDS011;4561;47.450;7.516;2023-09-19T05:53:32;2.23;;;1.30;;
9052;SDS011;4561;47.450;7.516;2023-09-19T05:56:55;4.17;;;1.03;;
9052;SDS011;4561;47.450;7.516;2023-09-19T06:00:21;2.73;;;1.43;;
9052;SDS011;4561;47.450;7.516;2023-09-19T06:03:42;2.10;;;1.10;;
9052;SDS011;4561;47.450;7.516;2023-09-19T06:07:03;4.50;;;1.53;;
9052;SDS011;4561;47.450;7.516;2023-09-19T06:10:26;4.80;;;1.73;;
9052;SDS011;4561;47.450;7.516;2023-09-19T06:13:47;2.63;;;1.20;;
9052;SDS011;4561;47.450;7.516;2023-09-19T06:17:08;3.03;;;1.13;;
9052;SDS011;4561;47.450;7.516;2023-09-19T06:20:31;3.10;;;1.10;;
9052;SDS011;4561;47.450;7.516;2023-09-19T06:23:53;2.03;;;1.10;;
9052;SDS011;4561;47.450;7.516;2023-09-19T06:27:14;3.70;;;1.03;;
9052;SDS011;4561;47.450;7.516;2023-09-19T06:30:34;4.17;;;1.33;;
9052;SDS011;4561;47.450;7.516;2023-09-19T06:33:54;1.80;;;1.20;;
9052;SDS011;4561;47.450;7.516;2023-09-19T06:37:15;1.67;;;1.20;;
9052;SDS011;4561;47.450;7.516;2023-09-19T06:40:35;1.33;;;1.13;;
9052;SDS011;4561;47.450;7.516;2023-09-19T06:43:56;3.10;;;1.00;;
9052;SDS011;4561;47.450;7.516;2023-09-19T06:47:16;1.90;;;1.23;;
9052;SDS011;4561;47.450;7.516;2023-09-19T06:50:37;3.20;;;1.23;;
9052;SDS011;4561;47.450;7.516;2023-09-19T06:53:58;2.27;;;1.10;;
9052;SDS011;4561;47.450;7.516;2023-09-19T06:57:22;2.90;;;1.27;;
9052;SDS011;4561;47.450;7.516;2023-09-19T07:00:42;4.83;;;1.63;;
9052;SDS011;4561;47.450;7.516;2023-09-19T07:04:03;2.50;;;1.30;;
9052;SDS011;4561;47.450;7.516;2023-09-19T07:07:26;2.70;;;1.07;;
9052;SDS011;4561;47.450;7.516;2023-09-19T07:10:46;1.17;;;1.07;;
9052;SDS011;4561;47.450;7.516;2023-09-19T07:14:09;1.80;;;1.30;;
9052;SDS011;4561;47.450;7.516;2023-09-19T07:17:33;2.80;;;1.23;;
9052;SDS011;4561;47.450;7.516;2023-09-19T07:20:56;2.57;;;1.10;;
9052;SDS011;4561;47.450;7.516;2023-09-19T07:24:19;3.70;;;1.20;;
9052;SDS011;4561;47.450;7.516;2023-09-19T07:27:40;1.20;;;1.00;;
9052;SDS011;4561;47.450;7.516;2023-09-19T07:31:03;2.50;;;1.37;;
9052;SDS011;4561;47.450;7.516;2023-09-19T07:34:27;3.10;;;1.20;;
9052;SDS011;4561;47.450;7.516;2023-09-19T07:37:47;1.60;;;1.50;;
9052;SDS011;4561;47.450;7.516;2023-09-19T07:41:16;2.57;;;1.27;;
9052;SDS011;4561;47.450;7.516;2023-09-19T07:44:36;3.90;;;1.30;;
9052;SDS011;4561;47.450;7.516;2023-09-19T07:47:57;2.07;;;1.10;;
9052;SDS011;4561;47.450;7.516;2023-09-19T07:51:18;3.20;;;1.20;;
9052;SDS011;4561;47.450;7.516;2023-09-19T07:54:38;2.33;;;1.40;;
9052;SDS011;4561;47.450;7.516;2023-09-19T07:58:01;2.43;;;1.63;;
9052;SDS011;4561;47.450;7.516;2023-09-19T08:01:27;3.97;;;1.40;;
9052;SDS011;4561;47.450;7.516;2023-09-19T08:04:47;2.83;;;1.10;;
9052;SDS011;4561;47.450;7.516;2023-09-19T08:08:08;3.80;;;1.20;;
9052;SDS011;4561;47.450;7.516;2023-09-19T08:11:29;2.63;;;1.43;;
9052;SDS011;4561;47.450;7.516;2023-09-19T08:14:53;3.33;;;1.10;;
9052;SDS011;4561;47.450;7.516;2023-09-19T08:18:14;3.13;;;1.20;;
9052;SDS011;4561;47.450;7.516;2023-09-19T08:21:37;4.07;;;1.50;;
9052;SDS011;4561;47.450;7.516;2023-09-19T08:24:58;3.05;;;1.45;;
9052;SDS011;4561;47.450;7.516;2023-09-19T08:28:19;2.10;;;1.10;;
9052;SDS011;4561;47.450;7.516;2023-09-19T08:31:44;2.93;;;1.10;;
9052;SDS011;4561;47.450;7.516;2023-09-19T08:35:05;2.77;;;1.20;;
9052;SDS011;4561;47.450;7.516;2023-09-19T08:38:26;2.73;;;1.40;;
9052;SDS011;4561;47.450;7.516;2023-09-19T08:41:49;3.00;;;1.40;;
9052;SDS011;4561;47.450;7.516;2023-09-19T08:45:17;2.60;;;1.30;;
9052;SDS011;4561;47.450;7.516;2023-09-19T08:48:39;3.00;;;1.20;;
9052;SDS011;4561;47.450;7.516;2023-09-19T08:52:22;1.63;;;1.20;;
9052;SDS011;4561;47.450;7.516;2023-09-19T08:55:46;1.83;;;1.10;;
9052;SDS011;4561;47.450;7.516;2023-09-19T08:59:09;2.13;;;1.23;;
9052;SDS011;4561;47.450;7.516;2023-09-19T09:02:31;2.47;;;1.23;;
9052;SDS011;4561;47.450;7.516;2023-09-19T09:05:54;2.07;;;1.20;;
9052;SDS011;4561;47.450;7.516;2023-09-19T09:09:17;2.10;;;1.10;;
9052;SDS011;4561;47.450;7.516;2023-09-19T09:12:39;2.50;;;1.30;;
9052;SDS011;4561;47.450;7.516;2023-09-19T09:16:01;3.40;;;1.37;;
9052;SDS011;4561;47.450;7.516;2023-09-19T09:19:21;3.83;;;1.37;;
9052;SDS011;4561;47.450;7.516;2023-09-19T09:22:50;4.43;;;1.37;;
9052;SDS011;4561;47.450;7.516;2023-09-19T09:26:14;4.47;;;1.40;;
9052;SDS011;4561;47.450;7.516;2023-09-19T09:29:44;1.73;;;1.13;;
9052;SDS011;4561;47.450;7.516;2023-09-19T09:33:15;1.88;;;1.10;;
9052;SDS011;4561;47.450;7.516;2023-09-19T09:36:37;3.08;;;1.33;;
9052;SDS011;4561;47.450;7.516;2023-09-19T09:40:01;3.25;;;1.15;;
9052;SDS011;4561;47.450;7.516;2023-09-19T09:43:38;3.28;;;1.02;;
9052;SDS011;4561;47.450;7.516;2023-09-19T09:47:06;2.05;;;1.15;;
9052;SDS011;4561;47.450;7.516;2023-09-19T09:50:50;1.60;;;1.25;;
9052;SDS011;4561;47.450;7.516;2023-09-19T09:57:35;1.75;;;1.00;;
9052;SDS011;4561;47.450;7.516;2023-09-19T10:00:56;1.30;;;1.05;;
9052;SDS011;4561;47.450;7.516;2023-09-19T10:04:29;5.05;;;1.13;;
9052;SDS011;4561;47.450;7.516;2023-09-19T10:07:56;2.53;;;1.23;;
9052;SDS011;4561;47.450;7.516;2023-09-19T10:11:25;1.20;;;1.00;;
9052;SDS011;4561;47.450;7.516;2023-09-19T10:14:53;1.75;;;0.95;;
9052;SDS011;4561;47.450;7.516;2023-09-19T10:18:21;3.30;;;1.00;;
9052;SDS011;4561;47.450;7.516;2023-09-19T10:21:45;1.55;;;1.10;;
9052;SDS011;4561;47.450;7.516;2023-09-19T10:25:06;1.05;;;0.93;;
9052;SDS011;4561;47.450;7.516;2023-09-19T10:28:28;1.25;;;0.82;;
9052;SDS011;4561;47.450;7.516;2023-09-19T10:31:50;1.13;;;0.90;;
9052;SDS011;4561;47.450;7.516;2023-09-19T10:35:13;2.40;;;1.00;;
9052;SDS011;4561;47.450;7.516;2023-09-19T10:38:34;3.72;;;0.90;;
9052;SDS011;4561;47.450;7.516;2023-09-19T10:42:01;1.67;;;0.80;;
9052;SDS011;4561;47.450;7.516;2023-09-19T10:45:25;1.45;;;0.90;;
9052;SDS011;4561;47.450;7.516;2023-09-19T10:48:47;2.28;;;0.95;;
9052;SDS011;4561;47.450;7.516;2023-09-19T10:52:10;2.17;;;0.95;;
9052;SDS011;4561;47.450;7.516;2023-09-19T10:55:35;2.38;;;1.08;;
9052;SDS011;4561;47.450;7.516;2023-09-19T10:59:07;1.35;;;0.88;;
9052;SDS011;4561;47.450;7.516;2023-09-19T11:02:33;1.40;;;0.90;;
9052;SDS011;4561;47.450;7.516;2023-09-19T11:06:03;2.38;;;1.02;;
9052;SDS011;4561;47.450;7.516;2023-09-19T11:09:42;1.67;;;0.80;;
9052;SDS011;4561;47.450;7.516;2023-09-19T11:13:25;1.90;;;0.85;;
9052;SDS011;4561;47.450;7.516;2023-09-19T11:20:25;1.92;;;1.30;;
9052;SDS011;4561;47.450;7.516;2023-09-19T11:28:07;1.77;;;1.10;;
9052;SDS011;4561;47.450;7.516;2023-09-19T11:31:43;1.00;;;0.77;;
9052;SDS011;4561;47.450;7.516;2023-09-19T11:35:07;2.47;;;1.00;;
9052;SDS011;4561;47.450;7.516;2023-09-19T11:39:14;3.22;;;1.05;;
9052;SDS011;4561;47.450;7.516;2023-09-19T11:46:08;2.70;;;1.02;;
9052;SDS011;4561;47.450;7.516;2023-09-19T11:49:31;2.80;;;1.13;;
9052;SDS011;4561;47.450;7.516;2023-09-19T11:52:57;2.45;;;1.15;;
9052;SDS011;4561;47.450;7.516;2023-09-19T11:56:18;2.88;;;1.38;;
9052;SDS011;4561;47.450;7.516;2023-09-19T11:59:46;1.80;;;1.33;;
9052;SDS011;4561;47.450;7.516;2023-09-19T12:03:09;1.52;;;1.00;;
9052;SDS011;4561;47.450;7.516;2023-09-19T12:06:34;3.90;;;1.10;;
9052;SDS011;4561;47.450;7.516;2023-09-19T12:10:04;4.30;;;1.10;;
9052;SDS011;4561;47.450;7.516;2023-09-19T12:13:26;2.42;;;1.08;;
9052;SDS011;4561;47.450;7.516;2023-09-19T12:16:57;2.80;;;1.00;;
9052;SDS011;4561;47.450;7.516;2023-09-19T12:20:21;2.15;;;0.77;;
9052;SDS011;4561;47.450;7.516;2023-09-19T12:23:43;1.55;;;1.10;;
9052;SDS011;4561;47.450;7.516;2023-09-19T12:27:04;4.35;;;1.70;;
9052;SDS011;4561;47.450;7.516;2023-09-19T12:30:29;1.58;;;0.90;;
9052;SDS011;4561;47.450;7.516;2023-09-19T12:33:58;1.80;;;1.10;;
9052;SDS011;4561;47.450;7.516;2023-09-19T12:37:23;1.75;;;1.20;;
9052;SDS011;4561;47.450;7.516;2023-09-19T12:40:56;2.40;;;1.00;;
9052;SDS011;4561;47.450;7.516;2023-09-19T12:44:20;3.25;;;1.05;;
9052;SDS011;4561;47.450;7.516;2023-09-19T12:47:40;2.65;;;1.13;;
9052;SDS011;4561;47.450;7.516;2023-09-19T12:51:08;1.40;;;1.00;;
9052;SDS011;4561;47.450;7.516;2023-09-19T12:54:41;1.38;;;1.00;;
9052;SDS011;4561;47.450;7.516;2023-09-19T12:58:12;3.42;;;0.85;;
9052;SDS011;4561;47.450;7.516;2023-09-19T13:01:37;1.67;;;0.82;;
9052;SDS011;4561;47.450;7.516;2023-09-19T13:05:18;3.80;;;1.17;;
9052;SDS011;4561;47.450;7.516;2023-09-19T13:08:38;1.40;;;1.10;;
9052;SDS011;4561;47.450;7.516;2023-09-19T13:12:02;1.35;;;1.10;;
9052;SDS011;4561;47.450;7.516;2023-09-19T13:15:22;4.20;;;0.93;;
9052;SDS011;4561;47.450;7.516;2023-09-19T13:18:46;1.42;;;0.88;;
9052;SDS011;4561;47.450;7.516;2023-09-19T13:22:35;0.90;;;0.85;;
9052;SDS011;4561;47.450;7.516;2023-09-19T13:25:58;1.08;;;0.93;;
9052;SDS011;4561;47.450;7.516;2023-09-19T13:29:18;1.48;;;0.98;;
9052;SDS011;4561;47.450;7.516;2023-09-19T13:32:38;1.33;;;0.80;;
9052;SDS011;4561;47.450;7.516;2023-09-19T13:36:00;1.83;;;0.80;;
9052;SDS011;4561;47.450;7.516;2023-09-19T13:39:21;1.85;;;0.82;;
9052;SDS011;4561;47.450;7.516;2023-09-19T13:42:47;0.97;;;0.80;;
9052;SDS011;4561;47.450;7.516;2023-09-19T13:46:13;1.20;;;0.90;;
9052;SDS011;4561;47.450;7.516;2023-09-19T13:49:36;0.85;;;0.75;;
9052;SDS011;4561;47.450;7.516;2023-09-19T13:52:58;1.88;;;0.90;;
9052;SDS011;4561;47.450;7.516;2023-09-19T13:56:23;1.52;;;0.85;;
9052;SDS011;4561;47.450;7.516;2023-09-19T13:59:44;1.27;;;1.00;;
9052;SDS011;4561;47.450;7.516;2023-09-19T14:03:05;2.22;;;1.10;;
9052;SDS011;4561;47.450;7.516;2023-09-19T14:06:25;1.20;;;0.80;;
9052;SDS011;4561;47.450;7.516;2023-09-19T14:09:46;1.33;;;0.90;;
9052;SDS011;4561;47.450;7.516;2023-09-19T14:13:06;1.10;;;0.90;;
9052;SDS011;4561;47.450;7.516;2023-09-19T14:16:27;1.83;;;1.00;;
9052;SDS011;4561;47.450;7.516;2023-09-19T14:19:50;1.50;;;0.80;;
9052;SDS011;4561;47.450;7.516;2023-09-19T14:23:11;2.50;;;0.80;;
9052;SDS011;4561;47.450;7.516;2023-09-19T14:26:32;1.23;;;0.97;;
9052;SDS011;4561;47.450;7.516;2023-09-19T14:29:54;3.10;;;1.00;;
9052;SDS011;4561;47.450;7.516;2023-09-19T14:33:15;1.63;;;1.05;;
9052;SDS011;4561;47.450;7.516;2023-09-19T14:36:36;2.63;;;1.00;;
9052;SDS011;4561;47.450;7.516;2023-09-19T14:39:56;1.47;;;0.80;;
9052;SDS011;4561;47.450;7.516;2023-09-19T14:43:19;1.33;;;1.00;;
9052;SDS011;4561;47.450;7.516;2023-09-19T14:46:40;2.17;;;0.80;;
9052;SDS011;4561;47.450;7.516;2023-09-19T14:50:03;2.47;;;0.90;;
9052;SDS011;4561;47.450;7.516;2023-09-19T14:53:26;1.20;;;1.10;;
9052;SDS011;4561;47.450;7.516;2023-09-19T14:56:49;4.38;;;0.95;;
9052;SDS011;4561;47.450;7.516;2023-09-19T15:00:13;1.37;;;0.80;;
9052;SDS011;4561;47.450;7.516;2023-09-19T15:03:34;2.00;;;0.73;;
9052;SDS011;4561;47.450;7.516;2023-09-19T15:06:59;1.93;;;1.00;;
9052;SDS011;4561;47.450;7.516;2023-09-19T15:10:23;2.30;;;0.80;;
9052;SDS011;4561;47.450;7.516;2023-09-19T15:13:45;2.03;;;1.00;;
9052;SDS011;4561;47.450;7.516;2023-09-19T15:17:06;1.33;;;0.93;;
9052;SDS011;4561;47.450;7.516;2023-09-19T15:20:27;1.60;;;0.90;;
9052;SDS011;4561;47.450;7.516;2023-09-19T15:23:47;1.00;;;0.90;;
9052;SDS011;4561;47.450;7.516;2023-09-19T15:27:07;1.30;;;0.90;;
9052;SDS011;4561;47.450;7.516;2023-09-19T15:30:28;3.17;;;1.30;;
9052;SDS011;4561;47.450;7.516;2023-09-19T15:33:48;1.52;;;0.90;;
9052;SDS011;4561;47.450;7.516;2023-09-19T15:37:09;1.70;;;1.00;;
9052;SDS011;4561;47.450;7.516;2023-09-19T15:40:29;1.17;;;0.90;;
9052;SDS011;4561;47.450;7.516;2023-09-19T15:43:52;2.70;;;1.10;;
9052;SDS011;4561;47.450;7.516;2023-09-19T15:47:13;1.53;;;1.20;;
9052;SDS011;4561;47.450;7.516;2023-09-19T15:50:33;1.10;;;1.00;;
9052;SDS011;4561;47.450;7.516;2023-09-19T15:53:54;1.00;;;0.90;;
9052;SDS011;4561;47.450;7.516;2023-09-19T15:57:19;1.07;;;0.87;;
9052;SDS011;4561;47.450;7.516;2023-09-19T16:00:40;1.47;;;0.97;;
9052;SDS011;4561;47.450;7.516;2023-09-19T16:04:00;3.37;;;1.00;;
9052;SDS011;4561;47.450;7.516;2023-09-19T16:07:23;2.40;;;1.10;;
9052;SDS011;4561;47.450;7.516;2023-09-19T16:10:47;1.13;;;0.90;;
9052;SDS011;4561;47.450;7.516;2023-09-19T16:14:07;1.83;;;0.93;;
9052;SDS011;4561;47.450;7.516;2023-09-19T16:17:29;2.93;;;1.00;;
9052;SDS011;4561;47.450;7.516;2023-09-19T16:20:50;3.60;;;1.30;;
9052;SDS011;4561;47.450;7.516;2023-09-19T16:24:10;2.70;;;1.10;;
9052;SDS011;4561;47.450;7.516;2023-09-19T16:27:31;1.83;;;1.13;;
9052;SDS011;4561;47.450;7.516;2023-09-19T16:30:55;1.13;;;0.90;;
9052;SDS011;4561;47.450;7.516;2023-09-19T16:34:20;1.07;;;0.87;;
9052;SDS011;4561;47.450;7.516;2023-09-19T16:37:43;2.30;;;1.20;;
9052;SDS011;4561;47.450;7.516;2023-09-19T16:41:04;1.50;;;1.23;;
9052;SDS011;4561;47.450;7.516;2023-09-19T16:44:25;2.43;;;1.00;;
9052;SDS011;4561;47.450;7.516;2023-09-19T16:47:46;1.50;;;1.10;;
9052;SDS011;4561;47.450;7.516;2023-09-19T16:51:09;1.17;;;0.90;;
9052;SDS011;4561;47.450;7.516;2023-09-19T16:54:30;1.33;;;0.80;;
9052;SDS011;4561;47.450;7.516;2023-09-19T16:57:51;2.57;;;1.00;;
9052;SDS011;4561;47.450;7.516;2023-09-19T17:01:12;1.17;;;0.90;;
9052;SDS011;4561;47.450;7.516;2023-09-19T17:04:33;2.50;;;1.20;;
9052;SDS011;4561;47.450;7.516;2023-09-19T17:07:54;2.67;;;1.00;;
9052;SDS011;4561;47.450;7.516;2023-09-19T17:11:15;2.43;;;1.00;;
9052;SDS011;4561;47.450;7.516;2023-09-19T17:14:40;2.57;;;1.10;;
9052;SDS011;4561;47.450;7.516;2023-09-19T17:18:01;1.33;;;1.00;;
9052;SDS011;4561;47.450;7.516;2023-09-19T17:21:24;3.77;;;1.10;;
9052;SDS011;4561;47.450;7.516;2023-09-19T17:24:45;1.63;;;1.00;;
9052;SDS011;4561;47.450;7.516;2023-09-19T17:28:06;3.07;;;1.30;;
9052;SDS011;4561;47.450;7.516;2023-09-19T17:31:26;1.60;;;1.07;;
9052;SDS011;4561;47.450;7.516;2023-09-19T17:34:47;2.47;;;1.03;;
9052;SDS011;4561;47.450;7.516;2023-09-19T17:38:11;2.33;;;0.90;;
9052;SDS011;4561;47.450;7.516;2023-09-19T17:41:32;1.33;;;0.90;;
9052;SDS011;4561;47.450;7.516;2023-09-19T17:44:52;1.43;;;1.13;;
9052;SDS011;4561;47.450;7.516;2023-09-19T17:48:12;1.77;;;1.17;;
9052;SDS011;4561;47.450;7.516;2023-09-19T17:51:33;2.60;;;1.00;;
9052;SDS011;4561;47.450;7.516;2023-09-19T17:54:55;1.73;;;1.00;;
9052;SDS011;4561;47.450;7.516;2023-09-19T17:58:18;2.10;;;1.00;;
9052;SDS011;4561;47.450;7.516;2023-09-19T18:01:41;2.03;;;0.97;;
9052;SDS011;4561;47.450;7.516;2023-09-19T18:05:06;2.57;;;1.20;;
9052;SDS011;4561;47.450;7.516;2023-09-19T18:08:27;1.63;;;1.27;;
9052;SDS011;4561;47.450;7.516;2023-09-19T18:11:48;1.70;;;0.90;;
9052;SDS011;4561;47.450;7.516;2023-09-19T18:15:08;2.20;;;1.20;;
9052;SDS011;4561;47.450;7.516;2023-09-19T18:18:29;2.10;;;1.20;;
9052;SDS011;4561;47.450;7.516;2023-09-19T18:21:49;5.00;;;1.10;;
9052;SDS011;4561;47.450;7.516;2023-09-19T18:25:10;0.87;;;0.87;;
9052;SDS011;4561;47.450;7.516;2023-09-19T18:28:36;2.37;;;1.27;;
9052;SDS011;4561;47.450;7.516;2023-09-19T18:31:58;1.53;;;1.07;;
9052;SDS011;4561;47.450;7.516;2023-09-19T18:35:22;2.87;;;1.10;;
9052;SDS011;4561;47.450;7.516;2023-09-19T18:38:43;1.80;;;0.90;;
9052;SDS011;4561;47.450;7.516;2023-09-19T18:42:04;4.63;;;1.20;;
9052;SDS011;4561;47.450;7.516;2023-09-19T18:45:28;4.90;;;1.30;;
9052;SDS011;4561;47.450;7.516;2023-09-19T18:48:51;6.00;;;1.30;;
9052;SDS011;4561;47.450;7.516;2023-09-19T18:52:12;1.80;;;1.10;;
9052;SDS011;4561;47.450;7.516;2023-09-19T18:55:35;2.97;;;1.10;;
9052;SDS011;4561;47.450;7.516;2023-09-19T18:58:55;1.73;;;0.90;;
9052;SDS011;4561;47.450;7.516;2023-09-19T19:02:18;2.73;;;1.30;;
9052;SDS011;4561;47.450;7.516;2023-09-19T19:05:40;1.93;;;1.10;;
9052;SDS011;4561;47.450;7.516;2023-09-19T19:09:03;3.23;;;0.83;;
9052;SDS011;4561;47.450;7.516;2023-09-19T19:12:25;5.27;;;1.30;;
9052;SDS011;4561;47.450;7.516;2023-09-19T19:15:46;3.23;;;1.20;;
9052;SDS011;4561;47.450;7.516;2023-09-19T19:19:06;1.57;;;0.93;;
9052;SDS011;4561;47.450;7.516;2023-09-19T19:22:28;2.47;;;1.00;;
9052;SDS011;4561;47.450;7.516;2023-09-19T19:25:49;2.13;;;1.20;;
9052;SDS011;4561;47.450;7.516;2023-09-19T19:29:11;1.93;;;1.20;;
9052;SDS011;4561;47.450;7.516;2023-09-19T19:32:32;2.23;;;1.20;;
9052;SDS011;4561;47.450;7.516;2023-09-19T19:36:03;2.57;;;1.37;;
9052;SDS011;4561;47.450;7.516;2023-09-19T19:39:25;1.67;;;1.10;;
9052;SDS011;4561;47.450;7.516;2023-09-19T19:42:46;2.80;;;1.10;;
9052;SDS011;4561;47.450;7.516;2023-09-19T19:46:06;1.83;;;1.30;;
9052;SDS011;4561;47.450;7.516;2023-09-19T19:49:27;2.20;;;1.53;;
9052;SDS011;4561;47.450;7.516;2023-09-19T19:52:50;1.47;;;1.00;;
9052;SDS011;4561;47.450;7.516;2023-09-19T19:56:13;3.13;;;1.17;;
9052;SDS011;4561;47.450;7.516;2023-09-19T19:59:34;1.40;;;1.17;;
9052;SDS011;4561;47.450;7.516;2023-09-19T20:02:57;2.67;;;1.20;;
9052;SDS011;4561;47.450;7.516;2023-09-19T20:06:19;2.70;;;1.27;;
9052;SDS011;4561;47.450;7.516;2023-09-19T20:09:42;2.07;;;1.10;;
9052;SDS011;4561;47.450;7.516;2023-09-19T20:13:07;2.63;;;1.20;;
9052;SDS011;4561;47.450;7.516;2023-09-19T20:16:31;1.37;;;1.17;;
9052;SDS011;4561;47.450;7.516;2023-09-19T20:19:52;3.50;;;1.40;;
9052;SDS011;4561;47.450;7.516;2023-09-19T20:23:13;1.87;;;1.20;;
9052;SDS011;4561;47.450;7.516;2023-09-19T20:26:37;3.40;;;1.10;;
9052;SDS011;4561;47.450;7.516;2023-09-19T20:29:57;3.60;;;1.37;;
9052;SDS011;4561;47.450;7.516;2023-09-19T20:33:17;2.93;;;1.20;;
9052;SDS011;4561;47.450;7.516;2023-09-19T20:36:38;2.13;;;1.20;;
9052;SDS011;4561;47.450;7.516;2023-09-19T20:39:59;3.73;;;1.30;;
9052;SDS011;4561;47.450;7.516;2023-09-19T20:43:20;2.00;;;1.30;;
9052;SDS011;4561;47.450;7.516;2023-09-19T20:46:40;3.57;;;1.03;;
9052;SDS011;4561;47.450;7.516;2023-09-19T20:50:02;4.67;;;1.30;;
9052;SDS011;4561;47.450;7.516;2023-09-19T20:53:22;2.00;;;1.10;;
9052;SDS011;4561;47.450;7.516;2023-09-19T20:56:45;5.17;;;1.37;;
9052;SDS011;4561;47.450;7.516;2023-09-19T21:00:09;1.90;;;1.20;;
9052;SDS011;4561;47.450;7.516;2023-09-19T21:03:31;2.97;;;1.20;;
9052;SDS011;4561;47.450;7.516;2023-09-19T21:06:55;1.47;;;1.37;;
9052;SDS011;4561;47.450;7.516;2023-09-19T21:10:15;3.77;;;1.47;;
9052;SDS011;4561;47.450;7.516;2023-09-19T21:13:36;1.70;;;1.40;;
9052;SDS011;4561;47.450;7.516;2023-09-19T21:16:57;2.53;;;1.30;;
9052;SDS011;4561;47.450;7.516;2023-09-19T21:20:18;3.63;;;1.13;;
9052;SDS011;4561;47.450;7.516;2023-09-19T21:23:42;2.17;;;1.23;;
9052;SDS011;4561;47.450;7.516;2023-09-19T21:27:04;3.27;;;1.27;;